Terminal Aerodrome Forecast
Issued by NWS

Home | Current Version | Previous Version | Text Only | Print | Product List | Glossary On
Versions: 1 2 3 4 5 6 7 8 9 10 11 12 13 14 15 16 17 18 19
441
FTUS44 KLUB 182332
TAFCDS
TAF
KCDS 182332Z 1900/1924 16008KT P6SM SCT020
     FM190700 VRB04KT 6SM BR SCT010
     FM191700 24014G22KT P6SM FEW200=

USA.gov is the U.S. government's official web portal to all federal, state and local government web resources and services.